Time;durP1;ratioP1;P1;durP2;ratioP2;P2;SDS_P1;SDS_P2;PMS_P1;PMS_P2;Temp;Humidity;BMP_temperature;BMP_pressure;BME280_temperature;BME280_humidity;BME280_pressure;Samples;Min_cycle;Max_cycle;Signal;HPM_P1;HPM_P2
2022/06/18 00:01:06;;;;;;;4.25;1.42;;;;;;;22.72;43.49;101033.94;4147654;28;20069;-73
2022/06/18 00:03:10;;;;;;;1.98;1.40;;;;;;;22.69;43.44;101040.19;4147192;28;20041;-73
2022/06/18 00:05:16;;;;;;;4.80;1.45;;;;;;;22.69;43.17;101032.25;4147582;28;20440;-73
2022/06/18 00:07:21;;;;;;;2.40;1.15;;;;;;;22.70;43.10;101028.69;4146508;28;20073;-73
2022/06/18 00:09:31;;;;;;;1.73;1.20;;;;;;;22.72;42.90;101040.16;4162646;28;20546;-73
2022/06/18 00:13:54;;;;;;;2.38;1.10;;;;;;;22.64;43.21;101027.06;4147508;28;20038;-73
2022/06/18 00:15:58;;;;;;;4.00;1.30;;;;;;;22.62;43.36;101023.59;4147547;28;20411;-73
2022/06/18 00:18:02;;;;;;;1.47;1.20;;;;;;;22.59;43.10;101028.09;4147572;28;20038;-73
2022/06/18 00:20:05;;;;;;;4.13;1.58;;;;;;;22.55;42.86;101023.81;4147552;28;20045;-73
2022/06/18 00:22:11;;;;;;;4.25;1.40;;;;;;;22.55;42.57;101027.34;4147100;28;20496;-73
2022/06/18 00:24:17;;;;;;;2.08;1.27;;;;;;;22.53;42.45;101020.31;4162491;28;20046;-73
2022/06/18 00:26:21;;;;;;;4.05;1.67;;;;;;;22.52;42.36;101018.59;4146246;28;20472;-73
2022/06/18 00:28:26;;;;;;;2.22;1.35;;;;;;;22.49;42.46;101019.56;4162507;28;20124;-73
2022/06/18 00:30:30;;;;;;;2.58;1.50;;;;;;;22.46;42.64;101017.84;4146265;28;20070;-73
2022/06/18 00:32:33;;;;;;;2.30;1.02;;;;;;;22.44;42.72;101018.78;4145863;28;20132;-73
2022/06/18 00:34:37;;;;;;;1.73;1.08;;;;;;;22.39;42.97;101013.63;4146305;28;20447;-73
2022/06/18 00:36:43;;;;;;;2.33;1.30;;;;;;;22.40;43.20;101017.13;4146185;28;20096;-73
2022/06/18 00:38:48;;;;;;;7.65;1.30;;;;;;;22.36;43.95;101007.53;4162433;28;20046;-73
2022/06/18 00:40:52;;;;;;;2.65;1.38;;;;;;;22.33;44.64;101007.59;4146147;28;20045;-73
2022/06/18 00:43:00;;;;;;;2.58;1.30;;;;;;;22.28;44.81;101010.34;4145679;28;20080;-73
2022/06/18 00:45:04;;;;;;;1.75;1.25;;;;;;;22.25;44.40;101003.34;4146143;28;20041;-73
2022/06/18 00:47:12;;;;;;;;;;;;;;;22.07;44.59;101003.81;4149935;28;20083;-73
2022/06/18 00:49:21;;;;;;;2.00;1.13;;;;;;;22.16;44.22;101000.94;4165480;28;20011;-73
2022/06/18 00:51:35;;;;;;;1.00;0.90;;;;;;;22.19;44.18;100999.97;4150200;28;20069;-73
2022/06/18 00:53:44;;;;;;;6.63;1.60;;;;;;;22.22;44.43;100998.13;4132748;28;20042;-73
2022/06/18 00:56:13;;;;;;;1.77;1.20;;;;;;;22.15;46.23;101007.13;4132766;28;20129;-73
2022/06/18 00:58:22;;;;;;;3.15;1.20;;;;;;;22.17;45.93;100996.53;4149039;28;20133;-73
2022/06/18 01:00:28;;;;;;;4.28;1.30;;;;;;;22.16;45.25;100997.41;4132674;28;20058;-73
2022/06/18 01:02:36;;;;;;;2.88;0.93;;;;;;;22.14;44.67;100994.81;4149670;28;20046;-74
2022/06/18 01:04:40;;;;;;;1.95;1.48;;;;;;;22.08;45.23;100993.19;4148942;28;20046;-73
2022/06/18 01:06:43;;;;;;;1.67;1.30;;;;;;;22.08;45.59;100989.69;4132453;28;20050;-73
2022/06/18 01:08:48;;;;;;;4.18;1.23;;;;;;;22.08;46.22;100994.97;4165228;28;20132;-73
2022/06/18 01:10:57;;;;;;;1.67;1.10;;;;;;;22.07;46.94;100994.09;4148804;28;20390;-73
2022/06/18 01:13:03;;;;;;;5.15;1.40;;;;;;;22.06;47.30;100986.19;4148441;28;20080;-73
2022/06/18 01:15:20;;;;;;;3.35;1.30;;;;;;;22.03;47.97;100988.91;4148733;28;20177;-73
2022/06/18 01:17:24;;;;;;;4.03;1.60;;;;;;;22.00;48.48;100983.69;4148703;28;20048;-73
2022/06/18 01:19:31;;;;;;;2.47;1.58;;;;;;;21.96;48.58;100986.41;4148651;28;20463;-73
2022/06/18 01:21:39;;;;;;;2.15;1.55;;;;;;;21.98;48.67;100981.09;4149881;28;20042;-73
2022/06/18 01:23:47;;;;;;;4.35;1.48;;;;;;;21.95;48.21;100983.81;4148594;28;20416;-73
2022/06/18 01:25:53;;;;;;;2.92;1.90;;;;;;;21.95;47.95;100976.72;4148565;28;20125;-73
2022/06/18 01:27:57;;;;;;;5.22;1.55;;;;;;;21.89;48.60;100976.88;4164929;28;20041;-74
2022/06/18 01:30:10;;;;;;;3.28;1.52;;;;;;;21.85;49.81;100980.50;4132276;28;20042;-73
2022/06/18 01:32:17;;;;;;;1.52;1.40;;;;;;;21.79;50.96;100967.44;4131842;28;20050;-73
2022/06/18 01:34:21;;;;;;;7.45;1.52;;;;;;;21.73;51.06;100979.03;4148473;28;20045;-73
2022/06/18 01:36:30;;;;;;;2.58;1.50;;;;;;;21.68;51.07;100967.66;4132177;28;20053;-73
2022/06/18 01:38:34;;;;;;;2.08;1.33;;;;;;;21.68;50.95;100966.81;4164611;28;20061;-73
2022/06/18 01:40:43;;;;;;;2.85;1.70;;;;;;;21.67;50.71;100962.41;4148168;28;20065;-73
2022/06/18 01:42:51;;;;;;;2.40;1.63;;;;;;;21.66;50.63;100958.06;4147882;28;20112;-73
2022/06/18 01:44:58;;;;;;;5.47;1.75;;;;;;;21.67;50.50;100962.41;4148311;28;20412;-73
2022/06/18 01:47:17;;;;;;;5.55;1.65;;;;;;;21.67;50.57;100967.72;4148151;28;20034;-73
2022/06/18 01:49:26;;;;;;;2.47;1.50;;;;;;;21.67;50.44;100962.41;4131992;28;20046;-73
2022/06/18 01:51:34;;;;;;;2.38;1.48;;;;;;;21.64;50.85;100963.38;4148017;28;20053;-73
2022/06/18 01:53:40;;;;;;;2.80;1.42;;;;;;;21.59;50.74;100966.13;4131780;28;20046;-73
2022/06/18 01:55:46;;;;;;;2.13;1.48;;;;;;;21.60;50.70;100967.88;4148062;28;20042;-73
2022/06/18 01:57:53;;;;;;;3.33;1.70;;;;;;;21.55;50.80;100963.59;4163431;28;20104;-73
2022/06/18 02:00:03;;;;;;;3.30;1.60;;;;;;;21.55;50.87;100969.75;4164490;28;20041;-73
2022/06/18 02:02:16;;;;;;;2.38;1.58;;;;;;;21.53;51.02;100968.06;4148867;28;20134;-73
2022/06/18 02:04:21;;;;;;;5.65;1.55;;;;;;;21.53;51.15;100970.69;4148005;28;20133;-73
2022/06/18 02:06:25;;;;;;;2.35;1.30;;;;;;;21.50;51.66;100970.75;4147857;28;20045;-73
2022/06/18 02:08:29;;;;;;;2.53;1.48;;;;;;;21.45;51.72;100968.22;4148149;28;20046;-73
2022/06/18 02:10:37;;;;;;;4.57;1.75;;;;;;;21.44;51.71;100969.09;4148030;28;20049;-73
2022/06/18 02:12:41;;;;;;;3.17;1.70;;;;;;;21.42;51.92;100968.25;4147450;28;20042;-73
2022/06/18 02:14:53;;;;;;;2.50;1.63;;;;;;;21.39;51.89;100968.31;4147754;28;20479;-73
2022/06/18 02:16:58;;;;;;;3.97;1.80;;;;;;;21.44;51.65;100963.81;4147636;28;20069;-73
2022/06/18 02:19:03;;;;;;;3.30;1.60;;;;;;;21.42;51.64;100965.59;4147715;28;20071;-73
2022/06/18 02:21:10;;;;;;;2.72;1.67;;;;;;;21.39;51.54;100969.22;4147829;28;20046;-73
2022/06/18 02:23:13;;;;;;;4.50;1.88;;;;;;;21.36;51.64;100968.41;4147333;28;20133;-73
2022/06/18 02:25:22;;;;;;;4.60;2.45;;;;;;;21.36;51.53;100969.28;4147522;28;20402;-73
2022/06/18 02:27:26;;;;;;;5.75;2.33;;;;;;;21.31;51.64;100968.50;4147584;28;20038;-74
2022/06/18 02:29:31;;;;;;;2.97;2.25;;;;;;;21.30;51.73;100966.75;4131305;28;20050;-73
2022/06/18 02:31:39;;;;;;;5.68;2.70;;;;;;;21.27;51.65;100962.44;4147371;28;20042;-73
2022/06/18 02:33:47;;;;;;;4.05;2.20;;;;;;;21.23;51.93;100958.09;4163850;28;20447;-73
2022/06/18 02:35:50;;;;;;;3.97;2.35;;;;;;;21.19;52.24;100953.78;4147602;28;20053;-73
2022/06/18 02:37:54;;;;;;;5.22;2.75;;;;;;;21.10;52.79;100962.78;4131130;28;20038;-73
2022/06/18 02:40:00;;;;;;;5.18;2.75;;;;;;;21.11;52.87;100963.63;4163773;28;20049;-73
2022/06/18 02:42:08;;;;;;;5.22;2.97;;;;;;;21.10;52.82;100956.63;4146973;28;20069;-74
2022/06/18 02:44:13;;;;;;;3.72;2.30;;;;;;;21.07;53.22;100960.22;4147346;28;20136;-73
2022/06/18 02:46:16;;;;;;;;;;;;;;;20.89;54.03;100972.00;4148874;28;20547;-73
2022/06/18 02:48:26;;;;;;;6.68;2.50;;;;;;;20.96;54.07;100962.19;4163650;28;19921;-73
2022/06/18 02:50:33;;;;;;;4.43;2.30;;;;;;;21.00;54.05;100968.31;4131024;28;20158;-73
2022/06/18 02:52:40;;;;;;;4.55;2.10;;;;;;;20.98;53.98;100963.03;4148093;28;20042;-73
2022/06/18 02:54:43;;;;;;;4.05;2.20;;;;;;;20.92;54.23;100958.78;4147276;28;20042;-73
2022/06/18 02:56:49;;;;;;;5.90;2.77;;;;;;;20.88;53.98;100956.19;4147248;28;20092;-73
2022/06/18 02:58:52;;;;;;;3.17;2.35;;;;;;;20.83;54.20;100952.78;4147217;28;20084;-73
2022/06/18 03:00:58;;;;;;;6.95;2.55;;;;;;;20.84;54.05;100955.41;4163425;28;20377;-73
2022/06/18 03:03:02;;;;;;;3.47;2.40;;;;;;;20.83;54.10;100956.28;4146795;28;20465;-73
2022/06/18 03:05:08;;;;;;;4.88;2.60;;;;;;;20.85;53.82;100957.16;4130761;28;20050;-73
2022/06/18 03:07:11;;;;;;;5.90;2.67;;;;;;;20.84;53.88;100958.03;4147049;28;20140;-73
2022/06/18 03:09:14;;;;;;;2.63;1.85;;;;;;;20.80;53.60;100959.00;4146850;28;20500;-73
2022/06/18 03:13:44;;;;;;;3.85;2.50;;;;;;;20.77;53.31;100961.72;4148096;28;20492;-73
2022/06/18 03:15:48;;;;;;;3.65;2.33;;;;;;;20.73;53.66;100957.38;4146945;28;20050;-74
2022/06/18 03:17:51;;;;;;;3.92;2.10;;;;;;;20.72;53.82;100963.56;4146943;28;20088;-73
2022/06/18 03:19:58;;;;;;;3.33;2.15;;;;;;;20.77;53.74;100963.50;4146996;28;20092;-73
2022/06/18 03:22:08;;;;;;;3.70;2.30;;;;;;;20.76;53.80;100959.97;4146552;28;20074;-73
2022/06/18 03:24:11;;;;;;;4.40;2.30;;;;;;;20.71;53.95;100962.69;4163274;28;20051;-74
2022/06/18 03:26:16;;;;;;;4.65;2.10;;;;;;;20.71;53.84;100961.84;4163124;28;20065;-73
2022/06/18 03:28:26;;;;;;;3.97;2.53;;;;;;;20.71;53.98;100954.78;4163098;28;20041;-73
2022/06/18 03:30:29;;;;;;;6.97;2.70;;;;;;;20.67;53.96;100949.59;4130472;28;20408;-73
2022/06/18 03:32:33;;;;;;;4.95;2.65;;;;;;;20.64;54.17;100958.41;4146404;28;20528;-73
2022/06/18 03:34:36;;;;;;;4.15;1.83;;;;;;;20.64;54.36;100955.75;4146765;28;20448;-73
2022/06/18 03:36:39;;;;;;;5.53;2.53;;;;;;;20.63;54.10;100961.06;4146734;28;20533;-73
2022/06/18 03:38:45;;;;;;;4.88;1.80;;;;;;;20.64;54.00;100961.03;4146672;28;20038;-73
2022/06/18 03:40:51;;;;;;;3.30;1.90;;;;;;;20.64;53.79;100968.09;4146669;28;20532;-73
2022/06/18 03:42:55;;;;;;;4.72;2.45;;;;;;;20.60;54.00;100974.34;4129988;28;20072;-73
2022/06/18 03:44:58;;;;;;;6.07;2.40;;;;;;;20.56;53.94;100966.47;4162896;28;20041;-73
2022/06/18 03:47:03;;;;;;;4.43;1.83;;;;;;;20.57;54.20;100973.53;4146549;28;20100;-73
2022/06/18 03:49:19;;;;;;;2.58;1.85;;;;;;;20.57;54.07;100975.28;4130360;28;20042;-73
2022/06/18 03:51:22;;;;;;;3.58;1.85;;;;;;;20.52;54.05;100974.50;4162900;28;20049;-73
2022/06/18 03:53:26;;;;;;;4.65;2.58;;;;;;;20.57;54.05;100973.53;4146335;28;20488;-73
2022/06/18 03:55:31;;;;;;;7.70;2.38;;;;;;;20.56;54.36;100977.06;4162713;28;20060;-73
2022/06/18 03:57:34;;;;;;;3.17;1.80;;;;;;;20.60;54.58;100982.28;4146551;28;20074;-73
2022/06/18 03:59:37;;;;;;;2.85;1.98;;;;;;;20.63;54.75;100977.78;4130256;28;20042;-73
2022/06/18 04:01:41;;;;;;;3.63;1.83;;;;;;;20.67;54.59;100976.88;4146205;28;20037;-73
2022/06/18 04:03:46;;;;;;;2.50;1.70;;;;;;;20.70;54.77;100976.81;4146482;28;20049;-73
2022/06/18 04:05:59;;;;;;;3.42;2.15;;;;;;;20.69;55.00;100974.19;4146408;28;20089;-73
2022/06/18 04:08:02;;;;;;;2.97;1.88;;;;;;;20.66;55.11;100977.78;4162678;28;20084;-73
2022/06/18 04:10:21;;;;;;;4.15;2.13;;;;;;;20.65;55.41;100975.16;4146438;28;20057;-73
2022/06/18 04:12:28;;;;;;;3.33;1.75;;;;;;;20.69;55.41;100966.25;4145986;28;20052;-73
2022/06/18 04:14:44;;;;;;;2.47;1.60;;;;;;;20.74;55.47;100975.00;4146452;28;20627;-73
2022/06/18 04:17:05;;;;;;;3.53;2.00;;;;;;;20.73;55.22;100982.06;4146446;28;20046;-73
2022/06/18 04:19:10;;;;;;;2.53;1.77;;;;;;;20.75;55.29;100976.72;4146479;28;20436;-73
2022/06/18 04:21:13;;;;;;;5.65;1.70;;;;;;;20.74;55.10;100977.63;4163722;28;20411;-73
2022/06/18 04:23:16;;;;;;;3.88;2.20;;;;;;;20.74;55.15;100980.28;4165626;28;20135;-73
2022/06/18 04:25:21;;;;;;;4.78;1.92;;;;;;;20.72;55.08;100982.06;4165852;28;20498;-73
2022/06/18 04:27:24;;;;;;;3.07;2.23;;;;;;;20.72;55.48;100982.06;4149612;28;20077;-73
2022/06/18 04:29:28;;;;;;;3.97;2.08;;;;;;;20.74;55.18;100985.56;4149436;28;20033;-73
2022/06/18 04:31:31;;;;;;;2.75;2.10;;;;;;;20.76;55.25;100981.09;4149296;28;20034;-73
2022/06/18 04:33:35;;;;;;;2.20;1.67;;;;;;;20.77;55.13;100982.00;4149258;28;20057;-73
2022/06/18 04:35:58;;;;;;;3.95;1.75;;;;;;;20.78;55.41;100984.59;4150509;28;20445;-73
2022/06/18 04:38:02;;;;;;;6.30;2.13;;;;;;;20.82;55.13;100983.63;4133007;28;20050;-74
2022/06/18 04:40:31;;;;;;;5.10;1.90;;;;;;;20.82;55.11;100985.41;4150455;28;20038;-73
2022/06/18 04:43:00;;;;;;;3.50;1.90;;;;;;;20.81;55.13;100979.25;4148786;28;20042;-74
2022/06/18 04:45:05;;;;;;;3.00;1.63;;;;;;;20.86;55.27;100984.44;4149279;28;20132;-74
2022/06/18 04:47:23;;;;;;;5.63;2.33;;;;;;;20.84;55.24;100983.59;4165562;28;20049;-73
2022/06/18 04:49:27;;;;;;;3.65;2.13;;;;;;;20.85;55.46;100982.69;4149237;28;20048;-73
2022/06/18 04:51:30;;;;;;;4.38;2.20;;;;;;;20.91;55.46;100988.72;4149037;28;20038;-73
2022/06/18 04:53:33;;;;;;;2.85;1.80;;;;;;;20.96;55.46;100980.69;4148857;28;20038;-73
2022/06/18 04:55:42;;;;;;;2.50;1.85;;;;;;;20.97;55.75;100976.28;4148935;28;20060;-73
2022/06/18 04:57:45;;;;;;;3.58;1.95;;;;;;;20.99;56.35;100979.78;4165345;28;20033;-73
2022/06/18 04:59:49;;;;;;;5.65;1.90;;;;;;;21.04;55.56;100985.81;4165382;28;20156;-73
2022/06/18 05:02:01;;;;;;;3.50;2.00;;;;;;;21.07;55.60;100983.09;4132317;28;20129;-73
2022/06/18 05:04:23;;;;;;;4.63;2.17;;;;;;;21.07;55.94;100983.09;4150082;28;20046;-73
2022/06/18 05:06:52;;;;;;;3.08;1.92;;;;;;;21.10;56.18;100978.66;4126725;28;20099;-73
2022/06/18 05:08:54;;;;;;;3.90;2.00;;;;;;;21.18;56.02;100981.13;4149885;28;20040;-73
2022/06/18 05:11:20;;;;;;;5.87;2.10;;;;;;;21.24;56.37;100980.97;4148848;28;20050;-73
2022/06/18 05:13:33;;;;;;;2.50;1.92;;;;;;;21.26;55.57;100978.28;4148541;28;20053;-73
2022/06/18 05:15:59;;;;;;;2.50;1.70;;;;;;;21.29;55.19;100975.63;4132514;28;20121;-73
2022/06/18 05:18:04;;;;;;;2.88;1.75;;;;;;;21.34;54.14;100960.50;4148704;28;20296;-73
2022/06/18 05:20:11;;;;;;;2.13;1.67;;;;;;;21.41;54.26;100970.03;4148672;28;20046;-73
2022/06/18 05:22:15;;;;;;;2.55;1.67;;;;;;;21.43;53.71;100968.22;4148370;28;20045;-73
2022/06/18 05:24:19;;;;;;;3.03;1.77;;;;;;;21.43;53.53;100968.22;4148647;28;20037;-73
2022/06/18 05:26:22;;;;;;;2.92;1.85;;;;;;;21.52;52.74;100963.66;4148554;28;20063;-73
2022/06/18 05:28:26;;;;;;;2.97;1.88;;;;;;;21.58;53.11;100968.78;4149658;28;20042;-73
2022/06/18 05:30:29;;;;;;;3.80;1.65;;;;;;;21.65;52.70;100961.59;4148571;28;20425;-73
2022/06/18 05:32:37;;;;;;;2.85;1.98;;;;;;;21.74;53.07;100954.31;4148049;28;20045;-73
2022/06/18 05:34:41;;;;;;;2.53;1.63;;;;;;;21.76;53.23;100949.00;4148475;28;20046;-73
2022/06/18 05:36:45;;;;;;;3.53;1.92;;;;;;;21.81;53.36;100956.81;4148447;28;20049;-73
2022/06/18 05:38:49;;;;;;;2.78;1.92;;;;;;;21.92;52.30;100942.41;4148413;28;20493;-73
2022/06/18 05:40:52;;;;;;;4.45;1.88;;;;;;;21.94;52.89;100947.66;4148334;28;20157;-73
2022/06/18 05:42:55;;;;;;;7.35;2.28;;;;;;;21.96;51.97;100943.16;4131615;28;20141;-73
2022/06/18 05:44:59;;;;;;;4.85;1.65;;;;;;;22.00;52.25;100943.97;4132007;28;20042;-73
2022/06/18 05:47:02;;;;;;;3.03;1.73;;;;;;;22.02;51.37;100942.16;4148299;28;20041;-73
2022/06/18 05:49:05;;;;;;;3.67;2.08;;;;;;;22.01;51.51;100937.78;4131838;28;20042;-73
2022/06/18 05:51:09;;;;;;;3.40;1.65;;;;;;;22.07;50.95;100943.78;4131891;28;20050;-73
2022/06/18 05:53:12;;;;;;;4.85;2.00;;;;;;;22.13;50.37;100940.09;4147786;28;20061;-73
2022/06/18 05:55:41;;;;;;;6.25;1.80;;;;;;;22.13;50.30;100945.41;4122804;28;20065;-73
2022/06/18 05:58:11;;;;;;;3.45;1.73;;;;;;;22.23;49.13;100940.75;4130777;28;20053;-73
2022/06/18 06:00:24;;;;;;;2.20;1.60;;;;;;;22.28;48.56;100945.00;4148115;28;20567;-73
2022/06/18 06:02:29;;;;;;;3.72;2.17;;;;;;;22.34;48.45;100943.13;4147735;28;20120;-73
2022/06/18 06:04:32;;;;;;;2.40;1.60;;;;;;;22.27;48.44;100945.91;4164297;28;20065;-73
2022/06/18 06:06:36;;;;;;;4.75;2.28;;;;;;;22.42;47.70;100957.03;4131672;28;20149;-73
2022/06/18 06:08:39;;;;;;;2.50;1.70;;;;;;;22.36;48.65;100951.91;4147851;28;20041;-74
2022/06/18 06:13:05;;;;;;;3.42;2.17;;;;;;;22.49;48.88;100953.31;4131187;28;20057;-73
2022/06/18 06:15:09;;;;;;;4.13;1.70;;;;;;;22.48;48.50;100951.56;4164221;28;20044;-73
2022/06/18 06:17:15;;;;;;;4.70;2.13;;;;;;;22.51;48.48;100950.63;4164135;28;20338;-74
2022/06/18 06:19:19;;;;;;;5.93;1.83;;;;;;;22.62;48.21;100949.41;4164022;28;20515;-73
2022/06/18 06:21:22;;;;;;;3.40;1.83;;;;;;;22.58;48.48;100950.41;4148837;28;20485;-74
2022/06/18 06:23:26;;;;;;;5.18;1.80;;;;;;;22.77;48.32;100949.88;4147479;28;20046;-73
2022/06/18 06:25:29;;;;;;;4.45;2.20;;;;;;;22.80;48.30;100947.13;4148771;28;20045;-73
2022/06/18 06:27:32;;;;;;;6.10;2.53;;;;;;;22.91;48.50;100950.34;4147776;28;20547;-73
2022/06/18 06:29:35;;;;;;;3.90;1.95;;;;;;;22.79;48.75;100940.09;4148699;28;20141;-74
2022/06/18 06:31:38;;;;;;;4.65;1.98;;;;;;;22.83;48.44;100953.22;4148475;28;20639;-73
2022/06/18 06:33:41;;;;;;;3.88;1.95;;;;;;;22.84;48.95;100947.00;4148703;28;20049;-74
2022/06/18 06:35:45;;;;;;;5.97;1.80;;;;;;;22.90;48.95;100945.97;4148680;28;20044;-73
2022/06/18 06:37:48;;;;;;;6.15;2.00;;;;;;;22.96;49.13;100948.41;4148712;28;20128;-74
2022/06/18 06:39:52;;;;;;;3.47;1.90;;;;;;;22.97;48.32;100941.34;4148649;28;20049;-74
2022/06/18 06:41:55;;;;;;;3.75;1.98;;;;;;;22.97;48.87;100949.31;4148171;28;20100;-74
2022/06/18 06:43:58;;;;;;;7.43;2.85;;;;;;;23.02;48.30;100948.22;4148173;28;20084;-73
2022/06/18 06:46:05;;;;;;;4.80;2.13;;;;;;;23.06;48.03;100943.72;4148542;28;20092;-74
2022/06/18 06:48:09;;;;;;;5.32;2.08;;;;;;;23.07;48.52;100953.44;4148446;28;20093;-74
2022/06/18 06:50:13;;;;;;;3.53;2.22;;;;;;;23.23;47.74;100945.91;4148460;28;20504;-74
2022/06/18 06:52:16;;;;;;;;;;;;;;;23.10;48.32;100947.13;4148567;28;20042;-74
2022/06/18 06:54:19;;;;;;;3.75;2.17;;;;;;;23.22;48.09;100945.91;4148310;28;19921;-73
2022/06/18 06:58:44;;;;;;;5.15;2.58;;;;;;;23.40;48.25;100947.16;4148394;28;20169;-73
2022/06/18 07:00:49;;;;;;;7.40;2.58;;;;;;;23.58;46.92;100943.88;4148355;28;20129;-73
2022/06/18 07:02:52;;;;;;;5.18;2.40;;;;;;;23.65;47.29;100947.22;4147867;28;20048;-72
2022/06/18 07:05:01;;;;;;;6.53;2.88;;;;;;;23.76;47.22;100946.88;4148432;28;20471;-73
2022/06/18 07:07:04;;;;;;;3.50;2.30;;;;;;;23.76;47.50;100949.53;4147043;28;20117;-73
2022/06/18 07:09:08;;;;;;;6.50;2.63;;;;;;;23.68;47.07;100945.38;4148119;28;20337;-73
2022/06/18 07:11:12;;;;;;;5.70;2.70;;;;;;;23.69;47.33;100938.25;4148195;28;20038;-74
2022/06/18 07:13:16;;;;;;;3.40;2.17;;;;;;;23.67;46.81;100945.38;4147851;28;20349;-73
2022/06/18 07:15:19;;;;;;;6.85;2.10;;;;;;;23.75;47.37;100947.81;4148084;28;20037;-73
2022/06/18 07:17:23;;;;;;;4.35;1.98;;;;;;;23.81;47.24;100942.28;4148127;28;20100;-73
2022/06/18 07:19:26;;;;;;;4.07;1.88;;;;;;;23.84;47.83;100939.53;4148150;28;20408;-74
2022/06/18 07:21:33;;;;;;;3.03;1.90;;;;;;;23.85;47.62;100935.97;4147895;28;20049;-73
2022/06/18 07:23:36;;;;;;;3.38;2.50;;;;;;;23.99;47.87;100931.09;4147853;28;20057;-73
2022/06/18 07:25:39;;;;;;;4.95;2.13;;;;;;;24.08;47.58;100929.00;4147926;28;20522;-73
2022/06/18 07:27:43;;;;;;;5.13;2.10;;;;;;;24.18;47.59;100931.31;4147970;28;20038;-73
2022/06/18 07:29:47;;;;;;;3.75;2.20;;;;;;;24.30;47.36;100930.00;4147937;28;20070;-73
2022/06/18 07:31:50;;;;;;;3.90;1.83;;;;;;;24.33;47.42;100927.25;4146450;28;20136;-73
2022/06/18 07:33:53;;;;;;;3.53;2.28;;;;;;;24.44;46.85;100923.31;4147818;28;20046;-73
2022/06/18 07:35:56;;;;;;;6.65;2.17;;;;;;;24.42;46.79;100919.88;4162848;28;20041;-73
2022/06/18 07:37:59;;;;;;;3.80;2.13;;;;;;;24.46;47.28;100919.69;4146709;28;20048;-73
2022/06/18 07:40:03;;;;;;;2.55;2.30;;;;;;;24.50;47.57;100915.13;4147816;28;20038;-73
2022/06/18 07:42:06;;;;;;;2.78;1.92;;;;;;;24.64;46.66;100912.84;4146170;28;20144;-73
2022/06/18 07:44:10;;;;;;;2.90;1.80;;;;;;;24.66;47.04;100910.13;4146581;28;20124;-73
2022/06/18 07:46:14;;;;;;;4.20;2.03;;;;;;;24.72;46.95;100900.16;4147752;28;20128;-73
2022/06/18 07:48:17;;;;;;;;;;;;;;;24.72;47.14;100902.81;4148213;28;20084;-73
2022/06/18 07:50:22;;;;;;;3.80;1.70;;;;;;;24.80;46.80;100901.66;4147674;28;19963;-73
2022/06/18 07:52:25;;;;;;;2.58;2.08;;;;;;;24.89;46.47;100890.66;4147540;28;20130;-73
2022/06/18 07:54:28;;;;;;;2.40;1.60;;;;;;;25.04;45.84;100891.84;4147726;28;20065;-73
2022/06/18 07:56:31;;;;;;;5.38;2.35;;;;;;;25.08;45.62;100896.97;4149218;28;20050;-72
2022/06/18 07:58:35;;;;;;;2.37;1.83;;;;;;;25.22;45.37;100898.25;4149877;28;20044;-73
2022/06/18 08:00:39;;;;;;;2.15;1.90;;;;;;;25.32;45.25;100899.66;4149891;28;20054;-72
2022/06/18 08:02:45;;;;;;;4.72;2.33;;;;;;;25.36;45.25;100893.25;4150704;28;20121;-73
2022/06/18 08:04:48;;;;;;;3.30;2.00;;;;;;;25.46;44.28;100895.56;4149828;28;20088;-73
2022/06/18 08:06:50;;;;;;;3.13;1.85;;;;;;;25.42;45.19;100889.47;4166008;28;20076;-73
2022/06/18 08:08:53;;;;;;;3.60;1.90;;;;;;;25.44;45.15;100890.28;4150967;28;20042;-73
2022/06/18 08:10:56;;;;;;;3.95;1.92;;;;;;;25.50;45.20;100887.38;4150831;28;20437;-73
2022/06/18 08:13:00;;;;;;;4.13;2.10;;;;;;;25.58;44.70;100890.59;4149203;28;20071;-73
2022/06/18 08:15:03;;;;;;;3.42;1.85;;;;;;;25.60;44.78;100888.72;4166035;28;20052;-73
2022/06/18 08:17:06;;;;;;;4.43;1.90;;;;;;;25.64;44.85;100883.25;4150815;28;20044;-73
2022/06/18 08:19:12;;;;;;;3.80;2.03;;;;;;;25.73;44.73;100886.41;4165886;28;20053;-72
2022/06/18 08:21:25;;;;;;;2.15;1.95;;;;;;;25.83;43.98;100883.34;4150910;28;20042;-72
2022/06/18 08:23:28;;;;;;;2.08;1.70;;;;;;;25.86;43.70;100889.41;4150485;28;20128;-73
2022/06/18 08:25:32;;;;;;;3.42;1.80;;;;;;;25.99;43.82;100879.06;4149507;28;20516;-72
2022/06/18 08:27:35;;;;;;;1.67;1.48;;;;;;;26.06;43.26;100877.06;4149428;28;20261;-72
2022/06/18 08:29:38;;;;;;;4.72;2.25;;;;;;;26.06;44.22;100883.25;4150567;28;20682;-72
2022/06/18 08:31:41;;;;;;;1.52;1.42;;;;;;;25.98;43.08;100874.69;4150294;28;20128;-72
2022/06/18 08:33:44;;;;;;;3.50;1.58;;;;;;;26.02;43.09;100872.78;4150539;28;20477;-73
2022/06/18 08:35:51;;;;;;;4.35;1.77;;;;;;;26.14;42.69;100869.59;4150545;28;20512;-73
2022/06/18 08:37:55;;;;;;;2.92;1.80;;;;;;;26.18;42.34;100868.53;4150572;28;20037;-73
2022/06/18 08:39:59;;;;;;;2.08;1.70;;;;;;;26.26;42.38;100870.84;4150490;28;20469;-73
2022/06/18 08:42:12;;;;;;;3.03;1.65;;;;;;;26.30;41.67;100872.44;4132484;28;20532;-72
2022/06/18 08:44:50;;;;;;;3.78;1.80;;;;;;;26.45;42.36;100871.72;4150479;28;20137;-73
2022/06/18 08:47:04;;;;;;;2.78;1.90;;;;;;;26.53;41.93;100867.84;4148021;28;20104;-73
2022/06/18 08:49:27;;;;;;;3.53;1.70;;;;;;;26.66;41.19;100858.34;4132921;28;20153;-73
2022/06/18 08:51:38;;;;;;;5.00;2.10;;;;;;;26.75;41.57;100865.97;4165236;28;20299;-73
2022/06/18 08:54:05;;;;;;;5.90;1.75;;;;;;;26.75;40.98;100863.28;4150273;28;20164;-73
2022/06/18 08:56:13;;;;;;;4.20;1.90;;;;;;;26.83;40.55;100855.78;4150210;28;20049;-73
2022/06/18 08:58:25;;;;;;;4.45;1.63;;;;;;;26.97;40.60;100859.56;4149268;28;20038;-73
2022/06/18 09:00:34;;;;;;;2.92;1.92;;;;;;;26.94;40.18;100857.06;4150241;28;20042;-73
2022/06/18 09:02:42;;;;;;;3.03;2.05;;;;;;;26.96;40.35;100855.19;4132594;28;20050;-73
2022/06/18 09:05:15;;;;;;;2.65;1.90;;;;;;;26.97;39.91;100854.25;4150042;28;20042;-73
2022/06/18 09:07:39;;;;;;;2.90;1.70;;;;;;;27.06;40.31;100847.59;4149664;28;20054;-73
2022/06/18 09:09:59;;;;;;;4.20;1.77;;;;;;;27.13;40.67;100852.56;4150023;28;20048;-73
2022/06/18 09:12:07;;;;;;;2.85;2.10;;;;;;;27.26;40.63;100846.63;4148374;28;20042;-72
2022/06/18 09:14:14;;;;;;;2.85;1.65;;;;;;;27.36;40.42;100839.91;4149985;28;20124;-73
2022/06/18 09:16:21;;;;;;;2.63;2.05;;;;;;;27.54;41.11;100850.59;4150015;28;20132;-72
2022/06/18 09:18:29;;;;;;;1.70;1.58;;;;;;;27.58;40.00;100846.84;4149966;28;20038;-73
2022/06/18 09:20:43;;;;;;;2.72;1.88;;;;;;;27.67;40.77;100841.03;4149858;28;20569;-73
2022/06/18 09:22:52;;;;;;;3.45;1.90;;;;;;;27.81;40.14;100826.97;4149530;28;20049;-73
2022/06/18 09:25:02;;;;;;;3.35;2.20;;;;;;;27.96;39.37;100833.31;4149847;28;20046;-72
2022/06/18 09:27:08;;;;;;;5.82;2.25;;;;;;;27.98;38.24;100831.47;4149818;28;20096;-72
2022/06/18 09:29:17;;;;;;;5.63;2.10;;;;;;;28.07;38.70;100822.94;4149781;28;20411;-73
2022/06/18 09:31:30;;;;;;;3.30;2.22;;;;;;;28.04;37.31;100828.47;4149646;28;20132;-73
2022/06/18 09:33:40;;;;;;;4.25;2.00;;;;;;;28.03;37.58;100816.88;4149476;28;20092;-72
2022/06/18 09:35:50;;;;;;;3.65;1.73;;;;;;;28.08;37.96;100822.00;4148375;28;20084;-72
2022/06/18 09:38:00;;;;;;;9.13;2.72;;;;;;;28.12;37.28;100815.53;4164812;28;20132;-72
2022/06/18 09:40:12;;;;;;;2.05;1.63;;;;;;;28.27;38.06;100818.31;4149605;28;20042;-72
2022/06/18 09:42:20;;;;;;;3.40;1.70;;;;;;;28.38;37.18;100822.13;4149066;28;20043;-72
2022/06/18 09:44:29;;;;;;;2.17;1.73;;;;;;;28.49;37.06;100812.66;4149484;28;20044;-72
2022/06/18 09:46:42;;;;;;;4.03;1.75;;;;;;;28.53;37.42;100815.09;4148293;28;20072;-72
2022/06/18 09:48:45;;;;;;;4.95;2.35;;;;;;;28.70;36.75;100813.31;4149450;28;20057;-72
2022/06/18 09:50:50;;;;;;;3.15;1.98;;;;;;;28.73;36.81;100813.13;4148118;28;20174;-72
2022/06/18 09:53:01;;;;;;;8.88;1.90;;;;;;;28.81;35.13;100810.91;4147796;28;20042;-72
2022/06/18 09:55:09;;;;;;;4.15;1.83;;;;;;;28.86;35.92;100811.50;4149312;28;20053;-72
2022/06/18 09:57:16;;;;;;;3.42;1.90;;;;;;;28.89;35.38;100808.63;4148177;28;20064;-72
2022/06/18 09:59:24;;;;;;;2.97;1.85;;;;;;;28.96;35.06;100810.97;4149290;28;20057;-73
2022/06/18 10:01:36;;;;;;;4.72;1.90;;;;;;;29.04;35.63;100806.03;4147957;28;20038;-72